Date,TemperatureHighF,TemperatureAvgF,TemperatureLowF,DewpointHighF,DewpointAvgF,DewpointLowF,HumidityHigh,HumidityAvg,HumidityLow,PressureMaxIn,PressureMinIn,WindSpeedMaxMPH,WindSpeedAvgMPH,GustSpeedMaxMPH,PrecipitationSumIn
2013-1-1,50.3,45.6,42.6,50.3,45.6,42.6,100,100,100,30.35,30.24,3,0,5,0.01
2013-1-2,47.6,37.7,25.7,47.6,37.7,25.7,100,100,100,30.25,30.11,0,0,2,0.01
2013-1-3,49.6,34.5,23.1,44.3,33.7,23.1,100,97,79,30.31,30.09,2,0,9,0.00
2013-1-4,46.7,41.0,37.9,45.2,40.9,37.9,100,99,87,30.32,30.17,1,0,4,0.01
2013-1-5,45.3,41.6,37.9,45.3,41.6,37.9,100,100,97,30.21,30.13,0,0,2,0.00
2013-1-6,47.7,41.9,36.8,47.6,41.5,36.8,100,99,85,30.25,30.18,1,0,4,0.01
2013-1-7,48.4,44.1,38.6,48.4,44.1,38.6,100,100,100,30.29,30.17,3,0,6,0.21
2013-1-8,51.4,45.9,39.4,51.4,45.9,39.4,100,100,100,30.29,30.02,1,0,5,0.00
2013-1-9,46.1,41.4,39.5,44.1,41.3,39.5,100,99,89,30.04,29.87,5,1,15,0.70
2013-1-10,45.3,42.0,38.6,45.3,42.0,38.6,100,100,100,30.25,30.08,1,0,6,0.93
2013-1-11,52.2,46.3,43.8,52.2,46.3,43.8,100,100,100,30.33,30.20,2,0,9,0.13
2013-1-12,50.9,44.2,41.1,49.8,44.2,41.1,100,100,95,30.39,30.27,0,0,2,0.01
2013-1-13,46.7,38.3,22.1,45.6,37.9,22.1,100,99,83,30.45,30.37,3,0,10,0.00
2013-1-14,28.3,21.0,15.6,26.6,20.7,15.6,100,99,92,30.55,30.47,2,0,5,0.01
2013-1-15,32.1,22.4,14.2,32.1,22.3,14.2,100,100,94,30.59,30.51,1,0,3,0.01
2013-1-16,38.4,27.4,21.6,38.4,27.4,21.6,100,100,100,30.57,30.38,0,0,2,0.01
2013-9-28,61.8,55.5,48.0,55.5,52.9,48.0,100,92,73,29.92,29.69,15,3,21,1.27
2013-9-29,55.6,52.0,46.8,55.6,52.0,46.8,100,100,100,29.83,29.63,5,1,15,1.65
2013-9-30,56.4,48.9,41.2,55.5,48.6,41.2,100,99,84,30.09,29.81,4,0,12,0.09
2013-10-1,60.3,48.1,40.8,56.4,47.7,40.8,100,99,68,30.23,30.06,10,0,17,0.33
2013-10-2,43.0,42.0,39.7,43.0,42.0,39.7,100,100,100,30.21,30.16,0,0,3,0.00
2013-10-3,55.5,44.9,36.3,48.7,42.6,36.3,100,92,65,30.39,30.24,2,0,9,0.01
2013-10-4,64.8,44.7,33.7,49.4,39.9,33.7,100,87,39,30.38,30.27,5,1,15,0.00
2013-10-5,70.7,46.0,32.0,55.9,42.1,32.0,100,89,42,30.28,30.12,0,0,0,0.01
2013-10-6,71.4,47.2,33.6,54.0,38.9,30.0,100,81,22,30.15,30.01,5,0,19,0.00
2013-11-14,49.1,42.6,37.1,45.1,41.5,37.1,100,96,79,30.27,30.12,1,0,4,0.04
2013-11-15,48.3,42.7,40.3,43.9,41.4,40.1,100,95,75,30.11,29.95,1,0,5,0.01
2013-11-16,44.3,41.5,39.3,44.3,41.5,39.3,100,100,100,29.95,29.90,0,0,7,0.30
2013-11-17,50.5,41.9,36.8,49.7,41.6,36.8,100,99,80,30.09,29.98,1,0,6,0.00
2013-11-18,51.1,43.0,36.7,48.9,42.3,36.7,100,98,84,30.05,29.82,4,1,16,0.22
2013-11-19,51.3,47.0,40.9,51.3,47.0,40.9,100,100,100,29.97,29.82,4,0,10,1.65
2013-11-20,40.8,35.9,28.2,40.8,35.1,28.2,100,97,80,30.26,29.97,4,0,12,0.07
2013-11-21,40.2,29.9,24.8,30.0,26.8,24.0,100,90,52,30.45,30.26,6,2,15,0.01
2013-11-22,49.4,29.0,21.1,35.0,25.7,21.1,100,90,34,30.45,30.25,6,1,13,0.01
2013-11-23,44.9,29.8,22.0,40.9,29.3,22.0,100,98,76,30.25,30.04,0,0,2,0.01
2013-11-24,43.6,29.7,22.8,40.9,29.6,22.8,100,99,88,30.28,30.09,0,0,1,0.00
2013-11-25,40.8,29.5,22.3,40.8,29.5,22.3,100,100,98,30.34,30.25,0,0,1,0.01
2013-11-26,47.7,33.8,24.7,46.3,33.6,24.7,100,99,91,30.28,30.05,0,0,1,0.01
2013-11-27,45.8,35.0,26.7,45.2,34.9,26.7,100,100,92,30.05,29.86,0,0,1,0.00
2013-11-28,45.7,34.9,29.3,45.7,34.9,29.3,100,100,99,30.19,29.96,0,0,2,0.00
2013-11-29,44.8,35.9,29.1,44.8,35.9,29.1,100,100,98,30.36,30.19,1,0,2,0.01
2013-11-30,45.5,38.3,34.4,45.1,38.3,34.4,100,100,97,30.42,30.32,0,0,2,0.00
2013-12-1,55.1,45.3,36.6,52.8,44.8,36.6,100,98,85,30.40,30.20,5,0,12,0.03
2013-12-2,49.1,41.5,33.3,48.9,41.5,33.3,100,100,97,30.20,30.03,7,1,13,0.65
2013-12-3,40.6,33.7,28.5,39.4,33.5,28.5,100,99,89,30.19,30.08,2,0,5,0.00
2013-12-4,31.8,25.1,19.2,28.5,24.2,19.2,100,97,69,30.29,30.19,4,0,12,0.01
2013-12-5,30.0,21.9,14.6,29.0,21.8,14.4,100,100,91,30.27,30.14,0,0,2,0.00
2013-12-6,35.1,29.9,24.7,35.1,29.8,24.7,100,100,95,30.14,29.84,6,0,14,0.44
2013-12-7,28.8,23.3,14.9,28.4,21.2,14.9,100,92,71,30.37,30.00,2,0,5,0.00
2013-12-8,28.8,17.3,10.7,22.6,15.5,10.0,100,93,59,30.58,30.36,9,1,15,0.01
2013-12-9,28.1,18.0,11.0,25.3,17.5,10.3,100,98,83,30.58,30.48,0,0,2,0.00
2013-12-10,34.8,22.1,14.3,33.5,21.9,14.3,100,99,91,30.52,30.34,0,0,3,0.01
2013-12-11,33.3,23.7,17.7,33.3,23.7,17.7,100,100,100,30.36,30.20,0,0,1,0.00
2013-12-12,34.7,26.9,17.7,34.7,26.9,17.7,100,100,100,30.27,30.15,1,0,3,0.13
2013-12-13,43.1,34.4,30.3,43.1,34.4,30.3,100,100,100,30.42,30.27,0,0,1,0.00
2013-12-14,41.5,34.3,29.5,41.5,34.3,29.5,100,100,100,30.48,30.40,0,0,3,0.00
2013-12-15,40.3,33.7,29.5,40.3,33.7,29.5,100,100,100,30.49,30.39,0,0,2,0.01
2013-12-16,40.8,31.7,27.5,40.8,31.7,27.5,100,100,100,30.43,30.19,0,0,3,0.00
2013-12-17,38.9,29.6,24.1,38.9,29.6,24.1,100,100,100,30.24,30.14,0,0,2,0.00
2013-12-18,39.7,34.6,29.7,39.7,34.6,29.7,100,100,93,30.19,30.06,6,0,11,0.04
2013-12-19,37.7,28.9,23.5,36.1,28.8,23.5,100,100,91,30.27,30.14,7,0,14,0.01
2013-12-20,38.3,32.2,24.4,37.5,32.1,24.4,100,99,90,30.25,30.06,2,0,4,0.33
2013-12-21,47.6,41.8,37.1,47.6,41.8,37.1,100,100,100,30.29,30.09,2,0,5,0.13
2013-12-22,51.5,42.9,39.0,51.3,42.9,39.0,100,100,100,30.40,30.29,1,0,4,0.01
2013-12-23,47.4,43.4,39.5,47.4,43.4,39.5,100,100,100,30.50,30.38,1,0,4,0.02
2013-12-24,48.3,40.4,32.0,47.4,40.2,32.0,100,99,85,30.52,30.38,4,1,9,0.02
2013-12-25,41.1,32.5,28.1,41.1,32.5,28.1,100,100,100,30.41,30.28,0,0,4,0.01
2013-12-26,41.5,31.7,27.0,41.5,31.7,27.0,100,100,100,30.33,30.19,0,0,1,0.00
2013-12-27,39.9,32.3,28.1,39.9,32.3,28.1,100,100,100,30.36,30.19,1,0,2,0.01
2013-12-28,44.5,32.7,24.5,41.5,32.4,24.5,100,99,76,30.45,30.35,4,0,9,0.00
2013-12-29,44.3,28.9,22.9,39.0,28.5,22.9,100,99,73,30.39,30.21,4,0,7,0.01
2013-12-30,41.1,30.8,25.9,41.1,30.8,25.9,100,100,100,30.28,30.19,0,0,2,0.00
2013-12-31,43.1,32.4,27.3,42.0,32.3,27.3,100,99,93,30.33,30.26,0,0,2,0.01
2014-1-1,43.3,31.7,24.4,43.3,31.7,24.4,100,100,100,30.33,30.20,0,0,2,0.00
2014-1-2,44.9,33.8,26.4,44.9,33.8,26.4,100,100,100,30.25,30.13,0,0,1,0.01